createdAt,value
2018-09-15T00:00:18.741Z,0.00
2018-09-15T00:01:18.760Z,0.00
2018-09-15T00:02:18.788Z,0.00
2018-09-15T00:03:18.812Z,0.00
2018-09-15T00:04:18.836Z,0.00
2018-09-15T00:05:18.859Z,0.00
2018-09-15T00:06:18.883Z,0.00
2018-09-15T00:07:18.912Z,0.00
2018-09-15T00:08:18.933Z,0.00
2018-09-15T00:09:18.958Z,0.00
2018-09-15T00:10:18.980Z,0.00
2018-09-15T00:11:19.004Z,0.00
2018-09-15T00:12:19.029Z,0.00
2018-09-15T00:13:19.052Z,0.00
2018-09-15T00:14:19.075Z,0.00
2018-09-15T00:15:19.101Z,0.00
2018-09-15T00:16:19.119Z,0.00
2018-09-15T00:17:19.146Z,0.00
2018-09-15T00:18:19.172Z,0.00
2018-09-15T00:19:19.194Z,0.00
2018-09-15T00:20:19.218Z,0.00
2018-09-15T00:21:19.243Z,0.00
2018-09-15T00:22:19.269Z,0.00
2018-09-15T00:23:19.292Z,0.00
2018-09-15T00:24:19.313Z,0.00
2018-09-15T00:25:19.338Z,0.00
2018-09-15T00:26:19.361Z,0.00
2018-09-15T00:27:19.386Z,0.00
2018-09-15T00:28:19.410Z,0.00
2018-09-15T00:29:19.431Z,0.00
2018-09-15T00:30:19.456Z,0.00
2018-09-15T00:31:19.479Z,0.00
2018-09-15T00:32:19.503Z,0.00
2018-09-15T00:33:19.530Z,0.00
2018-09-15T00:34:19.551Z,0.00
2018-09-15T00:35:19.575Z,0.00
2018-09-15T00:36:19.599Z,0.00
2018-09-15T00:37:19.621Z,0.00
2018-09-15T00:38:19.644Z,0.00
2018-09-15T00:39:19.671Z,0.00
2018-09-15T00:40:19.692Z,0.00
2018-09-15T00:41:19.716Z,0.00
2018-09-15T00:42:19.737Z,0.00
2018-09-15T00:43:19.760Z,0.00
2018-09-15T00:44:19.786Z,0.00
2018-09-15T00:45:19.810Z,0.00
2018-09-15T00:46:19.833Z,0.00
2018-09-15T00:47:19.856Z,0.00
2018-09-15T00:48:19.880Z,0.00
2018-09-15T00:49:19.902Z,0.00
2018-09-15T00:50:19.927Z,0.00
2018-09-15T00:51:19.951Z,0.00
2018-09-15T00:52:19.975Z,0.00
2018-09-15T00:53:19.999Z,0.00
2018-09-15T00:54:20.022Z,0.00
2018-09-15T00:55:20.048Z,0.00
2018-09-15T00:56:20.073Z,0.00
2018-09-15T00:57:20.094Z,0.00
2018-09-15T00:58:20.115Z,0.00
2018-09-15T00:59:20.142Z,0.00
2018-09-15T01:00:20.164Z,0.00
2018-09-15T01:01:20.187Z,0.00
2018-09-15T01:02:20.212Z,0.00
2018-09-15T01:03:20.234Z,0.00
2018-09-15T01:04:20.258Z,0.00
2018-09-15T01:05:20.281Z,0.00
2018-09-15T01:06:20.304Z,0.00
2018-09-15T01:07:20.331Z,0.00
2018-09-15T01:08:20.352Z,0.00
2018-09-15T01:09:20.375Z,0.00
2018-09-15T01:10:20.399Z,0.00
2018-09-15T01:11:20.424Z,0.00
2018-09-15T01:12:20.447Z,0.00
2018-09-15T01:13:20.472Z,0.00
2018-09-15T01:14:20.618Z,0.00
2018-09-15T01:15:20.520Z,0.00
2018-09-15T01:16:20.542Z,0.00
2018-09-15T01:17:20.566Z,0.00
2018-09-15T01:18:20.592Z,0.00
2018-09-15T01:19:20.613Z,0.00
2018-09-15T01:20:20.639Z,0.00
2018-09-15T01:21:20.657Z,0.00
2018-09-15T01:22:20.684Z,0.00
2018-09-15T01:23:20.708Z,0.00
2018-09-15T01:24:20.731Z,0.00
2018-09-15T01:25:20.754Z,0.00
2018-09-15T01:26:20.779Z,0.00
2018-09-15T01:27:20.801Z,0.00
2018-09-15T01:28:20.828Z,0.00
2018-09-15T01:29:20.849Z,0.00
2018-09-15T01:30:20.872Z,0.00
2018-09-15T01:31:20.895Z,0.00
2018-09-15T01:32:20.920Z,0.00
2018-09-15T01:33:20.943Z,0.00
2018-09-15T01:34:20.969Z,0.00
2018-09-15T01:35:20.995Z,0.00
2018-09-15T01:36:21.014Z,0.00
2018-09-15T01:37:21.038Z,0.00
2018-09-15T01:38:21.062Z,0.00
2018-09-15T01:39:21.087Z,0.00
2018-09-15T01:40:21.109Z,0.00
2018-09-15T01:41:21.132Z,0.00
2018-09-15T01:42:21.157Z,0.00
2018-09-15T01:43:21.180Z,0.00
2018-09-15T01:44:21.203Z,0.00
2018-09-15T01:45:21.226Z,0.00
2018-09-15T01:46:21.257Z,0.00
2018-09-15T01:47:21.275Z,0.00
2018-09-15T01:48:21.298Z,0.00
2018-09-15T01:49:21.326Z,0.00
2018-09-15T01:50:21.345Z,0.00
2018-09-15T01:51:21.373Z,0.00
2018-09-15T01:52:21.391Z,0.00
2018-09-15T01:53:21.420Z,0.00
2018-09-15T01:54:21.444Z,0.00
2018-09-15T01:55:21.466Z,0.00
2018-09-15T01:56:21.495Z,0.00
2018-09-15T01:57:21.564Z,0.00
2018-09-15T01:58:21.535Z,0.00
2018-09-15T01:59:21.558Z,0.00
2018-09-15T02:00:21.585Z,0.00
2018-09-15T02:01:21.606Z,0.00
2018-09-15T02:02:21.629Z,0.00
2018-09-15T02:03:21.654Z,0.00
2018-09-15T02:04:21.677Z,0.00
2018-09-15T02:05:21.700Z,0.00
2018-09-15T02:06:21.724Z,0.00
2018-09-15T02:07:21.748Z,0.00
2018-09-15T02:08:21.772Z,0.00
2018-09-15T02:09:21.795Z,0.00
2018-09-15T02:10:21.819Z,0.00
2018-09-15T02:11:21.841Z,0.00
2018-09-15T02:12:21.866Z,0.00
2018-09-15T02:13:21.889Z,0.00
2018-09-15T02:14:21.916Z,0.00
2018-09-15T02:15:21.937Z,0.00
2018-09-15T02:16:21.961Z,0.00
2018-09-15T02:17:21.986Z,0.00
2018-09-15T02:18:22.012Z,0.00
2018-09-15T02:19:22.032Z,0.00
2018-09-15T02:20:22.055Z,0.00
2018-09-15T02:21:22.077Z,0.00
2018-09-15T02:22:22.101Z,0.00
2018-09-15T02:23:22.126Z,0.00
2018-09-15T02:24:22.150Z,0.00
2018-09-15T02:25:22.175Z,0.00
2018-09-15T02:26:22.196Z,0.00
2018-09-15T02:27:22.220Z,0.00
2018-09-15T02:28:22.245Z,0.00
2018-09-15T02:29:22.270Z,0.00
2018-09-15T02:30:22.293Z,0.00
2018-09-15T02:31:22.318Z,0.00
2018-09-15T02:32:22.338Z,0.00
2018-09-15T02:33:22.364Z,0.00
2018-09-15T02:34:22.385Z,0.00
2018-09-15T02:35:22.410Z,0.00
2018-09-15T02:36:22.433Z,0.00
2018-09-15T02:37:22.456Z,0.00
2018-09-15T02:38:22.481Z,0.00
2018-09-15T02:39:22.503Z,0.00
2018-09-15T02:40:22.528Z,0.00
2018-09-15T02:41:22.550Z,0.00
2018-09-15T02:42:22.574Z,0.00
2018-09-15T02:43:22.599Z,0.00
2018-09-15T02:44:22.629Z,0.00
2018-09-15T02:45:22.645Z,0.00
2018-09-15T02:46:22.669Z,0.00
2018-09-15T02:47:22.692Z,0.00
2018-09-15T02:48:22.716Z,0.00
2018-09-15T02:49:22.741Z,0.00
2018-09-15T02:50:22.770Z,0.00
2018-09-15T02:51:22.787Z,0.00
2018-09-15T02:52:22.813Z,0.00
2018-09-15T02:53:22.836Z,0.00
2018-09-15T02:54:22.856Z,0.00
2018-09-15T02:55:22.881Z,0.00
2018-09-15T02:56:22.909Z,0.00
2018-09-15T02:57:22.928Z,0.00
2018-09-15T02:58:22.952Z,0.00
2018-09-15T02:59:22.979Z,0.00
2018-09-15T03:00:23.000Z,0.00
2018-09-15T03:01:23.022Z,0.00
2018-09-15T03:02:23.045Z,0.00
2018-09-15T03:03:23.069Z,0.00
2018-09-15T03:04:23.094Z,0.00
2018-09-15T03:05:23.117Z,0.00
2018-09-15T03:06:23.141Z,0.00
2018-09-15T03:07:23.171Z,0.00
2018-09-15T03:08:23.187Z,0.00
2018-09-15T03:09:23.211Z,0.00
2018-09-15T03:10:23.236Z,0.00
2018-09-15T03:11:23.262Z,0.00
2018-09-15T03:12:23.282Z,0.00
2018-09-15T03:13:23.305Z,0.00
2018-09-15T03:14:23.328Z,0.00
2018-09-15T03:15:23.353Z,0.00
2018-09-15T03:16:23.380Z,0.00
2018-09-15T03:17:23.399Z,0.00
2018-09-15T03:18:23.424Z,0.00
2018-09-15T03:19:23.446Z,0.00
2018-09-15T03:20:23.472Z,0.00
2018-09-15T03:21:23.495Z,0.00
2018-09-15T03:22:23.518Z,0.00
2018-09-15T03:23:23.541Z,0.00
2018-09-15T03:24:23.564Z,0.00
2018-09-15T03:25:23.591Z,0.00
2018-09-15T03:26:23.611Z,0.00
2018-09-15T03:27:23.635Z,0.00
2018-09-15T03:28:23.660Z,0.00
2018-09-15T03:29:23.681Z,0.00
2018-09-15T03:30:23.704Z,0.00
2018-09-15T03:31:23.729Z,0.00
2018-09-15T03:32:23.755Z,0.00
2018-09-15T03:33:23.775Z,0.00
2018-09-15T03:34:23.804Z,0.00
2018-09-15T03:35:23.826Z,0.00
2018-09-15T03:36:23.847Z,0.00
2018-09-15T03:37:23.873Z,0.00
2018-09-15T03:38:23.894Z,0.00
2018-09-15T03:39:23.919Z,0.00
2018-09-15T03:40:23.941Z,0.00
2018-09-15T03:41:24.019Z,0.00
2018-09-15T03:42:23.998Z,0.00
2018-09-15T03:43:24.013Z,0.00
2018-09-15T03:44:24.036Z,0.00
2018-09-15T03:45:24.061Z,0.00
2018-09-15T03:46:24.084Z,0.00
2018-09-15T03:47:24.105Z,0.00
2018-09-15T03:48:24.132Z,0.00
2018-09-15T03:49:24.154Z,0.00
2018-09-15T03:50:24.178Z,0.00
2018-09-15T03:51:24.201Z,0.00
2018-09-15T03:52:24.223Z,0.00
2018-09-15T03:53:24.247Z,0.00
2018-09-15T03:54:24.272Z,0.00
2018-09-15T03:55:24.299Z,0.00
2018-09-15T03:56:24.318Z,0.00
2018-09-15T03:57:24.340Z,0.00
2018-09-15T03:58:24.365Z,0.00
2018-09-15T03:59:24.388Z,0.00
2018-09-15T04:00:24.414Z,0.00
2018-09-15T04:01:24.435Z,0.00
2018-09-15T04:02:24.459Z,0.00
2018-09-15T04:03:24.494Z,0.00
2018-09-15T04:04:24.505Z,0.00
2018-09-15T04:05:24.528Z,0.00
2018-09-15T04:06:24.553Z,0.00
2018-09-15T04:07:24.575Z,0.00
2018-09-15T04:08:24.601Z,0.00
2018-09-15T04:09:24.624Z,0.00
2018-09-15T04:10:24.654Z,0.00
2018-09-15T04:11:24.670Z,0.00
2018-09-15T04:12:24.709Z,0.00
2018-09-15T04:13:24.719Z,0.00
2018-09-15T04:14:24.744Z,0.00
2018-09-15T04:15:24.767Z,0.00
2018-09-15T04:16:24.787Z,0.00
2018-09-15T04:17:24.813Z,0.00
2018-09-15T04:18:24.834Z,0.00
2018-09-15T04:19:24.859Z,0.00
2018-09-15T04:20:24.882Z,0.00
2018-09-15T04:21:24.905Z,0.00
2018-09-15T04:22:24.930Z,0.00
2018-09-15T04:23:24.952Z,0.00
2018-09-15T04:24:24.982Z,0.00
2018-09-15T04:25:24.999Z,0.00
2018-09-15T04:26:25.022Z,0.00
2018-09-15T04:27:25.051Z,4.00
2018-09-15T04:28:25.106Z,4.00
2018-09-15T04:29:25.095Z,4.00
2018-09-15T04:30:25.116Z,0.00
2018-09-15T04:31:25.142Z,0.00
2018-09-15T04:32:25.163Z,4.00
2018-09-15T04:33:25.186Z,4.00
2018-09-15T04:34:25.212Z,4.00
2018-09-15T04:35:25.235Z,0.00
2018-09-15T04:36:25.259Z,4.00
2018-09-15T04:37:25.281Z,4.00
2018-09-15T04:38:25.305Z,4.00
2018-09-15T04:39:25.328Z,4.00
2018-09-15T04:40:25.354Z,4.00
2018-09-15T04:41:25.380Z,8.00
2018-09-15T04:42:25.399Z,4.00
2018-09-15T04:43:25.422Z,4.00
2018-09-15T04:44:25.445Z,8.00
2018-09-15T04:45:25.470Z,4.00
2018-09-15T04:46:25.495Z,8.00
2018-09-15T04:47:25.517Z,8.00
2018-09-15T04:48:25.541Z,8.00
2018-09-15T04:49:25.567Z,12.00
2018-09-15T04:50:25.586Z,16.00
2018-09-15T04:51:25.611Z,12.00
2018-09-15T04:52:25.634Z,16.00
2018-09-15T04:53:25.657Z,20.00
2018-09-15T04:54:25.684Z,24.00
2018-09-15T04:55:25.703Z,24.00
2018-09-15T04:56:25.730Z,24.00
2018-09-15T04:57:25.754Z,28.00
2018-09-15T04:58:25.776Z,28.00
2018-09-15T04:59:25.799Z,28.00
2018-09-15T05:00:25.823Z,36.00
2018-09-15T05:01:25.844Z,40.00
2018-09-15T05:02:25.868Z,40.00
2018-09-15T05:03:25.893Z,48.00
2018-09-15T05:04:25.917Z,52.00
2018-09-15T05:05:25.939Z,60.00
2018-09-15T05:06:25.975Z,72.00
2018-09-15T05:07:25.986Z,108.00
2018-09-15T05:08:26.010Z,180.00
2018-09-15T05:09:26.034Z,244.00
2018-09-15T05:10:26.057Z,300.00
2018-09-15T05:11:26.082Z,372.00
2018-09-15T05:12:26.160Z,460.00
2018-09-15T05:13:26.127Z,568.00
2018-09-15T05:14:26.150Z,680.00
2018-09-15T05:15:26.174Z,708.00
2018-09-15T05:16:26.200Z,624.00
2018-09-15T05:17:26.223Z,480.00
2018-09-15T05:18:26.245Z,264.00
2018-09-15T05:19:26.284Z,104.00
2018-09-15T05:20:26.295Z,76.00
2018-09-15T05:21:26.313Z,68.00
2018-09-15T05:22:26.339Z,68.00
2018-09-15T05:23:26.367Z,68.00
2018-09-15T05:24:26.387Z,72.00
2018-09-15T05:25:26.410Z,72.00
2018-09-15T05:26:26.434Z,80.00
2018-09-15T05:27:26.457Z,88.00
2018-09-15T05:28:26.484Z,96.00
2018-09-15T05:29:26.504Z,104.00
2018-09-15T05:30:26.529Z,112.00
2018-09-15T05:31:26.567Z,112.00
2018-09-15T05:32:26.577Z,116.00
2018-09-15T05:33:26.603Z,124.00
2018-09-15T05:34:26.623Z,132.00
2018-09-15T05:35:26.646Z,148.00
2018-09-15T05:36:26.673Z,156.00
2018-09-15T05:37:26.694Z,156.00
2018-09-15T05:38:26.718Z,160.00
2018-09-15T05:39:26.743Z,172.00
2018-09-15T05:40:26.765Z,172.00
2018-09-15T05:41:26.788Z,172.00
2018-09-15T05:42:26.813Z,176.00
2018-09-15T05:43:26.835Z,188.00
2018-09-15T05:44:26.859Z,208.00
2018-09-15T05:45:26.884Z,224.00
2018-09-15T05:46:26.907Z,232.00
2018-09-15T05:47:26.932Z,240.00
2018-09-15T05:48:26.955Z,244.00
2018-09-15T05:49:26.977Z,256.00
2018-09-15T05:50:27.001Z,260.00
2018-09-15T05:51:27.024Z,248.00
2018-09-15T05:52:27.041Z,240.00
2018-09-15T05:53:27.078Z,244.00
2018-09-15T05:54:27.097Z,256.00
2018-09-15T05:55:27.119Z,272.00
2018-09-15T05:56:27.157Z,280.00
2018-09-15T05:57:27.172Z,292.00
2018-09-15T05:58:27.190Z,308.00
2018-09-15T05:59:27.217Z,312.00
2018-09-15T06:00:27.294Z,328.00
2018-09-15T06:01:27.284Z,336.00
2018-09-15T06:02:27.284Z,376.00
2018-09-15T06:03:27.308Z,444.00
2018-09-15T06:04:27.334Z,500.00
2018-09-15T06:05:27.356Z,520.00
2018-09-15T06:06:27.380Z,508.00
2018-09-15T06:07:27.403Z,472.00
2018-09-15T06:08:27.427Z,456.00
2018-09-15T06:09:27.449Z,460.00
2018-09-15T06:10:27.475Z,468.00
2018-09-15T06:11:27.501Z,504.00
2018-09-15T06:12:27.525Z,552.00
2018-09-15T06:13:27.544Z,544.00
2018-09-15T06:14:27.568Z,592.00
2018-09-15T06:15:27.592Z,656.00
2018-09-15T06:16:27.616Z,720.00
2018-09-15T06:17:27.641Z,796.00
2018-09-15T06:18:27.665Z,884.00
2018-09-15T06:19:27.687Z,968.00
2018-09-15T06:20:27.712Z,1096.00
2018-09-15T06:21:27.737Z,1212.00
2018-09-15T06:22:27.761Z,1356.00
2018-09-15T06:23:27.785Z,2268.00
2018-09-15T06:24:27.808Z,1828.00
2018-09-15T06:25:27.833Z,1844.00
2018-09-15T06:26:27.855Z,1584.00
2018-09-15T06:27:27.878Z,2168.00
2018-09-15T06:28:27.902Z,1836.00
2018-09-15T06:29:27.925Z,1520.00
2018-09-15T06:30:27.949Z,1584.00
2018-09-15T06:31:27.973Z,2700.00
2018-09-15T06:32:27.997Z,2884.00
2018-09-15T06:33:28.021Z,2956.00
2018-09-15T06:34:28.045Z,3056.00
2018-09-15T06:35:28.069Z,2932.00
2018-09-15T06:36:28.096Z,2568.00
2018-09-15T06:37:28.117Z,2000.00
2018-09-15T06:38:28.140Z,1880.00
2018-09-15T06:39:28.190Z,1856.00
2018-09-15T06:40:28.191Z,1932.00
2018-09-15T06:41:28.212Z,2052.00
2018-09-15T06:42:28.236Z,2376.00
2018-09-15T06:43:28.261Z,2628.00
2018-09-15T06:44:28.285Z,2636.00
2018-09-15T06:45:28.386Z,2588.00
2018-09-15T06:46:28.335Z,3220.00
2018-09-15T06:47:28.358Z,2244.00
2018-09-15T06:48:28.383Z,6168.00
2018-09-15T06:49:28.406Z,2672.00
2018-09-15T06:50:28.430Z,2064.00
2018-09-15T06:51:28.483Z,2084.00
2018-09-15T06:52:28.480Z,2036.00
2018-09-15T06:53:28.502Z,1952.00
2018-09-15T06:54:28.530Z,1852.00
2018-09-15T06:55:28.551Z,1732.00
2018-09-15T06:56:28.576Z,1680.00
2018-09-15T06:57:28.602Z,1692.00
2018-09-15T06:58:28.670Z,1764.00
2018-09-15T06:59:28.649Z,1884.00
2018-09-15T07:00:28.673Z,2012.00
2018-09-15T07:01:28.697Z,2800.00
2018-09-15T07:02:28.721Z,2908.00
2018-09-15T07:03:28.748Z,1692.00
2018-09-15T07:04:28.771Z,1584.00
2018-09-15T07:05:28.795Z,1512.00
2018-09-15T07:06:28.820Z,1432.00
2018-09-15T07:07:28.844Z,1768.00
2018-09-15T07:08:28.869Z,1408.00
2018-09-15T07:09:28.893Z,1376.00
2018-09-15T07:10:28.916Z,1376.00
2018-09-15T07:11:28.941Z,1364.00
2018-09-15T07:12:28.981Z,1328.00
2018-09-15T07:13:29.006Z,1292.00
2018-09-15T07:14:29.018Z,1288.00
2018-09-15T07:15:29.039Z,1316.00
2018-09-15T07:16:29.066Z,1352.00
2018-09-15T07:17:29.093Z,1388.00
2018-09-15T07:18:29.112Z,1432.00
2018-09-15T07:19:29.136Z,1520.00
2018-09-15T07:20:29.161Z,1688.00
2018-09-15T07:21:29.187Z,1812.00
2018-09-15T07:22:29.202Z,1940.00
2018-09-15T07:23:29.234Z,1976.00
2018-09-15T07:24:29.260Z,2072.00
2018-09-15T07:25:29.284Z,2092.00
2018-09-15T07:26:29.308Z,2100.00
2018-09-15T07:27:29.332Z,2088.00
2018-09-15T07:28:29.360Z,2032.00
2018-09-15T07:29:29.381Z,1932.00
2018-09-15T07:30:29.406Z,1876.00
2018-09-15T07:31:29.465Z,1788.00
2018-09-15T07:32:29.456Z,1740.00
2018-09-15T07:33:29.479Z,1712.00
2018-09-15T07:34:29.503Z,1640.00
2018-09-15T07:35:29.529Z,1588.00
2018-09-15T07:36:29.553Z,1588.00
2018-09-15T07:37:29.584Z,1580.00
2018-09-15T07:38:29.603Z,1532.00
2018-09-15T07:39:29.626Z,1472.00
2018-09-15T07:40:29.653Z,1396.00
2018-09-15T07:41:29.675Z,1328.00
2018-09-15T07:42:29.700Z,1268.00
2018-09-15T07:43:29.727Z,1208.00
2018-09-15T07:44:29.749Z,1140.00
2018-09-15T07:45:29.773Z,1036.00
2018-09-15T07:46:29.800Z,964.00
2018-09-15T07:47:29.824Z,976.00
2018-09-15T07:48:29.851Z,1000.00
2018-09-15T07:49:29.871Z,1064.00
2018-09-15T07:50:29.898Z,1132.00
2018-09-15T07:51:29.962Z,1172.00
2018-09-15T07:52:29.947Z,1196.00
2018-09-15T07:53:29.970Z,1200.00
2018-09-15T07:54:29.999Z,1188.00
2018-09-15T07:55:30.017Z,1176.00
2018-09-15T07:56:30.051Z,1200.00
2018-09-15T07:57:30.131Z,1164.00
2018-09-15T07:58:30.094Z,1116.00
2018-09-15T07:59:30.120Z,1124.00
2018-09-15T08:00:30.142Z,1060.00
2018-09-15T08:01:30.166Z,1044.00
2018-09-15T08:02:30.195Z,1028.00
2018-09-15T08:03:30.214Z,984.00
2018-09-15T08:04:30.242Z,960.00
2018-09-15T08:05:30.264Z,980.00
2018-09-15T08:06:30.288Z,1032.00
2018-09-15T08:07:30.312Z,1080.00
2018-09-15T08:08:30.338Z,1128.00
2018-09-15T08:09:30.361Z,1168.00
2018-09-15T08:10:30.386Z,1196.00
2018-09-15T08:11:30.413Z,1216.00
2018-09-15T08:12:30.446Z,1284.00
2018-09-15T08:13:30.460Z,1332.00
2018-09-15T08:14:30.485Z,1344.00
2018-09-15T08:15:30.508Z,1368.00
2018-09-15T08:16:30.539Z,1372.00
2018-09-15T08:17:30.557Z,1340.00
2018-09-15T08:18:30.583Z,1332.00
2018-09-15T08:19:30.608Z,1332.00
2018-09-15T08:20:30.633Z,1368.00
2018-09-15T08:21:30.655Z,1460.00
2018-09-15T08:22:30.688Z,1540.00
2018-09-15T08:23:30.705Z,1608.00
2018-09-15T08:24:30.730Z,1644.00
2018-09-15T08:25:30.754Z,1648.00
2018-09-15T08:26:30.819Z,1664.00
2018-09-15T08:27:30.816Z,1684.00
2018-09-15T08:28:30.828Z,1724.00
2018-09-15T08:29:30.852Z,1776.00
2018-09-15T08:30:30.876Z,1840.00
2018-09-15T08:31:30.901Z,1852.00
2018-09-15T08:32:30.925Z,1916.00
2018-09-15T08:33:30.949Z,1996.00
2018-09-15T08:34:30.978Z,2052.00
2018-09-15T08:35:30.999Z,2052.00
2018-09-15T08:36:31.027Z,2088.00
2018-09-15T08:37:31.072Z,2072.00
2018-09-15T08:38:31.073Z,2124.00
2018-09-15T08:39:31.097Z,2176.00
2018-09-15T08:40:31.124Z,2288.00
2018-09-15T08:41:31.147Z,2356.00
2018-09-15T08:42:31.172Z,2388.00
2018-09-15T08:43:31.197Z,2408.00
2018-09-15T08:44:31.221Z,2484.00
2018-09-15T08:45:31.248Z,2508.00
2018-09-15T08:46:31.271Z,2384.00
2018-09-15T08:47:31.294Z,2380.00
2018-09-15T08:48:31.322Z,2340.00
2018-09-15T08:49:31.346Z,2192.00
2018-09-15T08:50:31.369Z,1972.00
2018-09-15T08:51:31.393Z,1912.00
2018-09-15T08:52:31.418Z,1848.00
2018-09-15T08:53:31.442Z,1792.00
2018-09-15T08:54:31.467Z,1764.00
2018-09-15T08:55:31.494Z,1720.00
2018-09-15T08:56:31.521Z,1640.00
2018-09-15T08:57:31.541Z,1528.00
2018-09-15T08:58:31.566Z,1296.00
2018-09-15T08:59:31.591Z,1352.00
2018-09-15T09:00:31.615Z,1244.00
2018-09-15T09:01:31.640Z,1276.00
2018-09-15T09:02:31.666Z,1264.00
2018-09-15T09:03:31.719Z,1484.00
2018-09-15T09:04:31.715Z,1364.00
2018-09-15T09:05:31.741Z,1480.00
2018-09-15T09:06:31.764Z,1492.00
2018-09-15T09:07:31.794Z,1544.00
2018-09-15T09:08:31.819Z,1692.00
2018-09-15T09:09:31.838Z,1668.00
2018-09-15T09:10:31.861Z,1844.00
2018-09-15T09:11:31.888Z,1972.00
2018-09-15T09:12:31.912Z,1992.00
2018-09-15T09:13:31.937Z,2128.00
2018-09-15T09:14:31.964Z,2204.00
2018-09-15T09:15:31.986Z,2188.00
2018-09-15T09:16:32.012Z,2172.00
2018-09-15T09:17:32.035Z,2172.00
2018-09-15T09:18:32.064Z,2184.00
2018-09-15T09:19:32.089Z,2176.00
2018-09-15T09:20:32.110Z,2100.00
2018-09-15T09:21:32.139Z,2116.00
2018-09-15T09:22:32.162Z,2044.00
2018-09-15T09:23:32.187Z,2108.00
2018-09-15T09:24:32.210Z,2192.00
2018-09-15T09:25:32.235Z,2248.00
2018-09-15T09:26:32.353Z,2340.00
2018-09-15T09:27:32.284Z,2392.00
2018-09-15T09:28:32.310Z,2424.00
2018-09-15T09:29:32.334Z,2488.00
2018-09-15T09:30:32.356Z,2484.00
2018-09-15T09:31:32.386Z,2392.00
2018-09-15T09:32:32.409Z,2336.00
2018-09-15T09:33:32.432Z,2232.00
2018-09-15T09:34:32.451Z,2116.00
2018-09-15T09:35:32.489Z,2020.00
2018-09-15T09:36:32.546Z,1964.00
2018-09-15T09:37:32.535Z,1996.00
2018-09-15T09:38:32.559Z,2144.00
2018-09-15T09:39:32.584Z,2212.00
2018-09-15T09:40:32.611Z,2216.00
2018-09-15T09:41:32.704Z,2084.00
2018-09-15T09:42:32.657Z,1988.00
2018-09-15T09:43:32.700Z,2104.00
2018-09-15T09:44:32.707Z,2208.00
2018-09-15T09:45:32.735Z,2236.00
2018-09-15T09:46:32.758Z,2188.00
2018-09-15T09:47:32.782Z,2184.00
2018-09-15T09:48:32.807Z,2224.00
2018-09-15T09:49:32.832Z,2264.00
2018-09-15T09:50:32.858Z,2236.00
2018-09-15T09:51:32.882Z,2200.00
2018-09-15T09:52:32.913Z,2220.00
2018-09-15T09:53:32.931Z,2228.00
2018-09-15T09:54:32.955Z,2296.00
2018-09-15T09:55:32.981Z,2216.00
2018-09-15T09:56:33.010Z,2096.00
2018-09-15T09:57:33.030Z,2252.00
2018-09-15T09:58:33.058Z,2692.00
2018-09-15T09:59:33.084Z,2424.00
2018-09-15T10:00:33.107Z,2232.00
2018-09-15T10:01:33.131Z,1888.00
2018-09-15T10:02:33.156Z,1928.00
2018-09-15T10:03:33.191Z,1908.00
2018-09-15T10:04:33.207Z,1816.00
2018-09-15T10:05:33.231Z,1860.00
2018-09-15T10:06:33.256Z,1656.00
2018-09-15T10:07:33.281Z,2036.00
2018-09-15T10:08:33.306Z,1952.00
2018-09-15T10:09:33.332Z,2108.00
2018-09-15T10:10:33.361Z,1764.00
2018-09-15T10:11:33.383Z,1816.00
2018-09-15T10:12:33.406Z,2068.00
2018-09-15T10:13:33.432Z,2288.00
2018-09-15T10:14:33.457Z,2480.00
2018-09-15T10:15:33.481Z,2396.00
2018-09-15T10:16:33.508Z,2328.00
2018-09-15T10:17:33.534Z,1908.00
2018-09-15T10:18:33.557Z,2212.00
2018-09-15T10:19:33.585Z,2552.00
2018-09-15T10:20:33.607Z,2352.00
2018-09-15T10:21:33.642Z,2112.00
2018-09-15T10:22:33.659Z,2496.00
2018-09-15T10:23:33.684Z,2640.00
2018-09-15T10:24:33.707Z,2840.00
2018-09-15T10:25:33.732Z,2688.00
2018-09-15T10:26:33.755Z,2604.00
2018-09-15T10:27:33.782Z,2392.00
2018-09-15T10:28:33.813Z,2428.00
2018-09-15T10:29:33.834Z,2692.00
2018-09-15T10:30:33.857Z,2684.00
2018-09-15T10:31:33.888Z,2624.00
2018-09-15T10:32:33.909Z,2616.00
2018-09-15T10:33:33.932Z,2472.00
2018-09-15T10:34:33.958Z,2512.00
2018-09-15T10:35:33.983Z,2668.00
2018-09-15T10:36:34.011Z,2732.00
2018-09-15T10:37:34.038Z,2756.00
2018-09-15T10:38:34.121Z,2480.00
2018-09-15T10:39:34.089Z,2256.00
2018-09-15T10:40:34.167Z,2160.00
2018-09-15T10:41:34.136Z,2316.00
2018-09-15T10:42:34.162Z,2448.00
2018-09-15T10:43:34.184Z,2732.00
2018-09-15T10:44:34.210Z,3300.00
2018-09-15T10:45:34.235Z,3356.00
2018-09-15T10:46:34.328Z,2924.00
2018-09-15T10:47:34.286Z,2996.00
2018-09-15T10:48:34.312Z,2724.00
2018-09-15T10:49:34.346Z,3064.00
2018-09-15T10:50:34.364Z,3140.00
2018-09-15T10:51:34.387Z,2996.00
2018-09-15T10:52:34.415Z,2640.00
2018-09-15T10:53:34.437Z,2576.00
2018-09-15T10:54:34.462Z,2456.00
2018-09-15T10:55:34.488Z,2224.00
2018-09-15T10:56:34.512Z,2128.00
2018-09-15T10:57:34.537Z,2212.00
2018-09-15T10:58:34.563Z,2408.00
2018-09-15T10:59:34.590Z,2664.00
2018-09-15T11:00:34.624Z,2256.00
2018-09-15T11:01:34.641Z,2088.00
2018-09-15T11:02:34.667Z,2016.00
2018-09-15T11:03:34.690Z,2012.00
2018-09-15T11:04:34.715Z,2088.00
2018-09-15T11:05:34.740Z,1932.00
2018-09-15T11:06:34.771Z,2368.00
2018-09-15T11:07:34.791Z,2004.00
2018-09-15T11:08:34.821Z,2356.00
2018-09-15T11:09:34.841Z,2136.00
2018-09-15T11:10:34.867Z,2024.00
2018-09-15T11:11:34.892Z,1828.00
2018-09-15T11:12:34.918Z,1720.00
2018-09-15T11:13:34.983Z,1664.00
2018-09-15T11:14:34.967Z,1560.00
2018-09-15T11:15:34.996Z,1476.00
2018-09-15T11:16:35.021Z,1388.00
2018-09-15T11:17:35.044Z,1360.00
2018-09-15T11:18:35.070Z,1556.00
2018-09-15T11:19:35.097Z,1592.00
2018-09-15T11:20:35.119Z,1532.00
2018-09-15T11:21:35.150Z,1556.00
2018-09-15T11:22:35.199Z,1596.00
2018-09-15T11:23:35.195Z,1484.00
2018-09-15T11:24:35.220Z,1848.00
2018-09-15T11:25:35.245Z,1624.00
2018-09-15T11:26:35.271Z,1504.00
2018-09-15T11:27:35.305Z,1368.00
2018-09-15T11:28:35.344Z,1892.00
2018-09-15T11:29:35.347Z,1924.00
2018-09-15T11:30:35.377Z,2124.00
2018-09-15T11:31:35.397Z,2076.00
2018-09-15T11:32:35.423Z,1604.00
2018-09-15T11:33:35.448Z,1676.00
2018-09-15T11:34:35.481Z,1928.00
2018-09-15T11:35:35.498Z,2084.00
2018-09-15T11:36:35.524Z,2036.00
2018-09-15T11:37:35.551Z,2416.00
2018-09-15T11:38:35.573Z,2232.00
2018-09-15T11:39:35.605Z,2776.00
2018-09-15T11:40:35.624Z,2324.00
2018-09-15T11:41:35.653Z,2144.00
2018-09-15T11:42:35.675Z,1916.00
2018-09-15T11:43:35.752Z,1912.00
2018-09-15T11:44:35.725Z,1928.00
2018-09-15T11:45:35.751Z,1948.00
2018-09-15T11:46:35.781Z,1700.00
2018-09-15T11:47:35.803Z,1424.00
2018-09-15T11:48:35.827Z,1320.00
2018-09-15T11:49:35.851Z,1324.00
2018-09-15T11:50:35.877Z,1500.00
2018-09-15T11:51:35.905Z,1692.00
2018-09-15T11:52:35.933Z,2052.00
2018-09-15T11:53:35.951Z,2036.00
2018-09-15T11:54:35.977Z,1640.00
2018-09-15T11:55:36.006Z,2088.00
2018-09-15T11:56:36.029Z,2048.00
2018-09-15T11:57:36.059Z,2044.00
2018-09-15T11:58:36.078Z,2000.00
2018-09-15T11:59:36.103Z,2504.00
2018-09-15T12:00:36.129Z,2088.00
2018-09-15T12:01:36.154Z,1984.00
2018-09-15T12:02:36.181Z,1824.00
2018-09-15T12:03:36.205Z,1820.00
2018-09-15T12:04:36.238Z,1940.00
2018-09-15T12:05:36.257Z,2060.00
2018-09-15T12:06:36.282Z,2116.00
2018-09-15T12:07:36.305Z,2148.00
2018-09-15T12:08:36.331Z,2568.00
2018-09-15T12:09:36.356Z,2456.00
2018-09-15T12:10:36.381Z,2340.00
2018-09-15T12:11:36.412Z,2340.00
2018-09-15T12:12:36.434Z,2280.00
2018-09-15T12:13:36.456Z,2120.00
2018-09-15T12:14:36.486Z,1600.00
2018-09-15T12:15:36.508Z,1692.00
2018-09-15T12:16:36.526Z,2424.00
2018-09-15T12:17:36.562Z,2172.00
2018-09-15T12:18:36.584Z,2220.00
2018-09-15T12:19:36.618Z,2148.00
2018-09-15T12:20:36.634Z,1852.00
2018-09-15T12:21:36.716Z,1612.00
2018-09-15T12:22:36.689Z,1400.00
2018-09-15T12:23:36.712Z,1236.00
2018-09-15T12:24:36.736Z,1212.00
2018-09-15T12:25:36.761Z,1212.00
2018-09-15T12:26:36.787Z,1228.00
2018-09-15T12:27:36.813Z,1216.00
2018-09-15T12:28:36.839Z,1080.00
2018-09-15T12:29:36.862Z,964.00
2018-09-15T12:30:36.886Z,852.00
2018-09-15T12:31:36.913Z,740.00
2018-09-15T12:32:36.937Z,648.00
2018-09-15T12:33:37.096Z,600.00
2018-09-15T12:34:36.987Z,564.00
2018-09-15T12:35:37.014Z,524.00
2018-09-15T12:36:37.038Z,488.00